Huron Regional Airport
KHON : now visible

Airfield :











YOU CAN JOIN US ON...

 
LOGIN :

Register | Disclaimer

   EN    FR    IT 

 









Legend :    VFR   Marginal VFR   IFR   Intensive IFR   Very Intensive IFR
Visi :
Ceiling :
>= 8 km
>= 3000ft
5 to 8 km
1000 to 3000 ft
1500m to 5 km
500 to 1000 ft
800 to 1500m
200 to 500 ft
< 800m
< 200 ft
Symbols :   Thunderstorms  Fog  Heavy snow  Heavy precipitations  Wind > 20 kt






- Airport Elevation : 1289 ft
- IATA code : HON


KHON - Huron Regional

CURRENT METAR :
  • 221355Z AUTO 19011KT 10SM CLR 06/M04 A3001 RMK AO2 SLP169 T00611044

EXPIRED METARs :
  • 221255Z AUTO 18006KT 10SM CLR 01/M04 A3001 RMK AO2 SLP172 T00111044
  • 221155Z AUTO 13004KT 10SM CLR M03/M06 A3000 RMK AO2 SLP170 T10281056 10017 21033 56009

TAF KHON
Valid from the 22 at 12:00 until the 23 at 12:00 UTC


221120Z 2212/2312 18007KT P6SM SKC
FM221600 19012G18KT P6SM SKC
FM221900 19016G24KT P6SM BKN070
FM222300 19014G22KT P6SM -SHRA OVC025
FM230200 18012G20KT 6SM -SHRA BR OVC009
FM230400 18011KT P6SM OVC015
KZMP FIR / North America



MET'MAP, your aeronautical weather chart ! - Copyright ORBIFLY December 2007 - Disclaimer

ORBIFLY MET'MAP TEAM :

Programming & Development : Alexandra Zaïnal
Concept & original design : Baudouin d'Aumeries
Assistance for programming : Marc-Olivier Méhu
Technical & hardware support : Manuel Goepfert

Contact : metmap@orbifly.com




SOURCES & CREDITS :

   NOAA       Earth
Advisory